Terminal Aerodrome Forecast
Issued by NWS

Home | Current Version | Previous Version | Text Only | Print | Product List | Glossary Off
Versions: 1 2 3 4 5 6 7 8 9 10 11 12 13 14 15

000
FTUS43 KBIS 180500
TAFDIK
TAF
KDIK 180535Z 1806/1906 14009KT P6SM SKC
     FM180900 15011KT P6SM SCT120
     FM181700 17017G26KT P6SM SCT120=

USA.gov is the U.S. government's official web portal to all federal, state and local government web resources and services.